sensor_id;sensor_type;location;lat;lon;timestamp;temperature;humidity
8945;DHT22;4507;40.232;29.132;2023-04-24T00:00:19;10.30;99.90
8945;DHT22;4507;40.232;29.132;2023-04-24T00:02:48;10.30;99.90
8945;DHT22;4507;40.232;29.132;2023-04-24T00:05:18;10.30;99.90
8945;DHT22;4507;40.232;29.132;2023-04-24T00:07:47;10.30;99.90
8945;DHT22;4507;40.232;29.132;2023-04-24T00:10:16;10.30;99.90
8945;DHT22;4507;40.232;29.132;2023-04-24T00:13:05;10.20;99.90
8945;DHT22;4507;40.232;29.132;2023-04-24T00:15:35;10.20;99.90
8945;DHT22;4507;40.232;29.132;2023-04-24T00:18:25;10.20;99.90
8945;DHT22;4507;40.232;29.132;2023-04-24T00:20:54;10.20;99.90
8945;DHT22;4507;40.232;29.132;2023-04-24T00:23:23;10.20;99.90
8945;DHT22;4507;40.232;29.132;2023-04-24T00:25:52;10.20;99.90
8945;DHT22;4507;40.232;29.132;2023-04-24T00:28:22;10.20;99.90
8945;DHT22;4507;40.232;29.132;2023-04-24T00:30:51;10.20;99.90
8945;DHT22;4507;40.232;29.132;2023-04-24T00:33:21;10.20;99.90
8945;DHT22;4507;40.232;29.132;2023-04-24T00:35:50;10.20;99.90
8945;DHT22;4507;40.232;29.132;2023-04-24T00:38:19;10.20;99.90
8945;DHT22;4507;40.232;29.132;2023-04-24T00:40:49;10.20;99.90
8945;DHT22;4507;40.232;29.132;2023-04-24T00:43:18;10.20;99.90
8945;DHT22;4507;40.232;29.132;2023-04-24T00:45:49;10.10;99.90
8945;DHT22;4507;40.232;29.132;2023-04-24T00:48:18;10.10;99.90
8945;DHT22;4507;40.232;29.132;2023-04-24T00:50:48;10.10;99.90
8945;DHT22;4507;40.232;29.132;2023-04-24T00:53:17;10.00;99.90
8945;DHT22;4507;40.232;29.132;2023-04-24T00:55:47;10.00;99.90
8945;DHT22;4507;40.232;29.132;2023-04-24T00:58:16;10.00;99.90
8945;DHT22;4507;40.232;29.132;2023-04-24T01:00:45;9.90;99.90
8945;DHT22;4507;40.232;29.132;2023-04-24T01:03:16;10.00;99.90
8945;DHT22;4507;40.232;29.132;2023-04-24T01:05:46;10.00;99.90
8945;DHT22;4507;40.232;29.132;2023-04-24T01:08:16;10.00;99.90
8945;DHT22;4507;40.232;29.132;2023-04-24T01:10:46;10.00;99.90
8945;DHT22;4507;40.232;29.132;2023-04-24T01:13:18;10.10;99.90
8945;DHT22;4507;40.232;29.132;2023-04-24T01:15:48;10.10;99.90
8945;DHT22;4507;40.232;29.132;2023-04-24T01:18:19;10.20;99.90
8945;DHT22;4507;40.232;29.132;2023-04-24T01:20:51;10.20;99.90
8945;DHT22;4507;40.232;29.132;2023-04-24T01:23:24;10.30;99.90
8945;DHT22;4507;40.232;29.132;2023-04-24T01:25:54;10.30;99.90
8945;DHT22;4507;40.232;29.132;2023-04-24T01:28:25;10.40;99.90
8945;DHT22;4507;40.232;29.132;2023-04-24T01:30:54;10.50;99.90
8945;DHT22;4507;40.232;29.132;2023-04-24T01:33:24;10.60;99.90
8945;DHT22;4507;40.232;29.132;2023-04-24T01:35:54;10.60;99.90
8945;DHT22;4507;40.232;29.132;2023-04-24T01:38:25;10.70;99.90
8945;DHT22;4507;40.232;29.132;2023-04-24T01:40:54;10.70;99.90
8945;DHT22;4507;40.232;29.132;2023-04-24T01:43:24;10.80;99.90
8945;DHT22;4507;40.232;29.132;2023-04-24T01:45:57;10.80;99.90
8945;DHT22;4507;40.232;29.132;2023-04-24T01:48:27;10.90;99.90
8945;DHT22;4507;40.232;29.132;2023-04-24T01:50:57;10.90;99.90
8945;DHT22;4507;40.232;29.132;2023-04-24T01:53:28;11.00;99.90
8945;DHT22;4507;40.232;29.132;2023-04-24T01:55:57;11.00;99.90
8945;DHT22;4507;40.232;29.132;2023-04-24T01:58:27;11.10;99.90
8945;DHT22;4507;40.232;29.132;2023-04-24T02:00:56;11.10;99.90
8945;DHT22;4507;40.232;29.132;2023-04-24T02:03:26;11.10;99.90
8945;DHT22;4507;40.232;29.132;2023-04-24T02:05:57;11.10;99.90
8945;DHT22;4507;40.232;29.132;2023-04-24T02:08:28;11.10;99.90
8945;DHT22;4507;40.232;29.132;2023-04-24T02:10:57;11.00;99.90
8945;DHT22;4507;40.232;29.132;2023-04-24T02:13:26;11.00;99.90
8945;DHT22;4507;40.232;29.132;2023-04-24T02:15:55;11.00;99.90
8945;DHT22;4507;40.232;29.132;2023-04-24T02:18:24;11.00;99.90
8945;DHT22;4507;40.232;29.132;2023-04-24T02:20:53;11.00;99.90
8945;DHT22;4507;40.232;29.132;2023-04-24T02:23:22;11.00;99.90
8945;DHT22;4507;40.232;29.132;2023-04-24T02:25:53;11.00;99.90
8945;DHT22;4507;40.232;29.132;2023-04-24T02:28:40;11.00;99.90
8945;DHT22;4507;40.232;29.132;2023-04-24T02:31:10;11.10;99.90
8945;DHT22;4507;40.232;29.132;2023-04-24T02:33:40;11.10;99.90
8945;DHT22;4507;40.232;29.132;2023-04-24T02:36:09;11.20;99.90
8945;DHT22;4507;40.232;29.132;2023-04-24T02:38:38;11.20;99.90
8945;DHT22;4507;40.232;29.132;2023-04-24T02:41:09;11.30;99.90
8945;DHT22;4507;40.232;29.132;2023-04-24T02:43:38;11.30;99.90
8945;DHT22;4507;40.232;29.132;2023-04-24T02:46:07;11.40;99.90
8945;DHT22;4507;40.232;29.132;2023-04-24T02:48:36;11.40;99.90
8945;DHT22;4507;40.232;29.132;2023-04-24T02:51:05;11.50;99.90
8945;DHT22;4507;40.232;29.132;2023-04-24T02:53:36;11.50;99.90
8945;DHT22;4507;40.232;29.132;2023-04-24T02:56:05;11.60;99.90
8945;DHT22;4507;40.232;29.132;2023-04-24T02:58:35;11.60;99.90
8945;DHT22;4507;40.232;29.132;2023-04-24T03:01:04;11.70;99.90
8945;DHT22;4507;40.232;29.132;2023-04-24T03:03:33;11.70;99.90
8945;DHT22;4507;40.232;29.132;2023-04-24T03:06:03;11.80;99.90
8945;DHT22;4507;40.232;29.132;2023-04-24T03:08:33;11.80;99.90
8945;DHT22;4507;40.232;29.132;2023-04-24T03:11:02;11.90;99.90
8945;DHT22;4507;40.232;29.132;2023-04-24T03:13:31;11.90;99.90
8945;DHT22;4507;40.232;29.132;2023-04-24T03:16:01;11.90;99.90
8945;DHT22;4507;40.232;29.132;2023-04-24T03:18:30;11.90;99.90
8945;DHT22;4507;40.232;29.132;2023-04-24T03:21:00;11.90;99.90
8945;DHT22;4507;40.232;29.132;2023-04-24T03:23:31;11.90;99.90
8945;DHT22;4507;40.232;29.132;2023-04-24T03:26:00;11.90;99.90
8945;DHT22;4507;40.232;29.132;2023-04-24T03:28:30;12.00;99.90
8945;DHT22;4507;40.232;29.132;2023-04-24T03:31:04;12.00;99.90
8945;DHT22;4507;40.232;29.132;2023-04-24T03:33:38;12.00;99.90
8945;DHT22;4507;40.232;29.132;2023-04-24T03:36:09;12.00;99.90
8945;DHT22;4507;40.232;29.132;2023-04-24T03:38:40;12.10;99.90
8945;DHT22;4507;40.232;29.132;2023-04-24T03:41:35;12.10;99.90
8945;DHT22;4507;40.232;29.132;2023-04-24T03:44:11;12.10;99.90
8945;DHT22;4507;40.232;29.132;2023-04-24T03:46:42;12.20;99.90
8945;DHT22;4507;40.232;29.132;2023-04-24T03:49:11;12.20;99.90
8945;DHT22;4507;40.232;29.132;2023-04-24T03:51:43;12.20;99.90
8945;DHT22;4507;40.232;29.132;2023-04-24T03:54:22;12.20;99.90
8945;DHT22;4507;40.232;29.132;2023-04-24T03:56:52;12.20;99.90
8945;DHT22;4507;40.232;29.132;2023-04-24T03:59:23;12.20;99.90
8945;DHT22;4507;40.232;29.132;2023-04-24T04:02:07;12.30;99.90
8945;DHT22;4507;40.232;29.132;2023-04-24T04:04:37;12.30;99.90
8945;DHT22;4507;40.232;29.132;2023-04-24T04:07:06;12.30;99.90
8945;DHT22;4507;40.232;29.132;2023-04-24T04:09:36;12.40;99.90
8945;DHT22;4507;40.232;29.132;2023-04-24T04:12:05;12.40;99.90
8945;DHT22;4507;40.232;29.132;2023-04-24T04:14:34;12.50;99.90
8945;DHT22;4507;40.232;29.132;2023-04-24T04:17:03;12.50;99.90
8945;DHT22;4507;40.232;29.132;2023-04-24T04:19:34;12.50;99.90
8945;DHT22;4507;40.232;29.132;2023-04-24T04:22:03;12.50;99.90
8945;DHT22;4507;40.232;29.132;2023-04-24T04:24:41;12.60;99.90
8945;DHT22;4507;40.232;29.132;2023-04-24T04:27:11;12.60;99.90
8945;DHT22;4507;40.232;29.132;2023-04-24T04:29:57;12.60;99.90
8945;DHT22;4507;40.232;29.132;2023-04-24T04:32:27;12.60;99.90
8945;DHT22;4507;40.232;29.132;2023-04-24T04:34:58;12.60;99.90
8945;DHT22;4507;40.232;29.132;2023-04-24T04:37:33;12.60;99.90
8945;DHT22;4507;40.232;29.132;2023-04-24T04:40:31;12.60;99.90
8945;DHT22;4507;40.232;29.132;2023-04-24T04:43:04;12.60;99.90
8945;DHT22;4507;40.232;29.132;2023-04-24T04:45:41;12.60;99.90
8945;DHT22;4507;40.232;29.132;2023-04-24T04:48:39;12.60;99.90
8945;DHT22;4507;40.232;29.132;2023-04-24T04:51:10;12.60;99.90
8945;DHT22;4507;40.232;29.132;2023-04-24T04:53:39;12.50;99.90
8945;DHT22;4507;40.232;29.132;2023-04-24T04:56:08;12.50;99.90
8945;DHT22;4507;40.232;29.132;2023-04-24T04:58:42;12.50;99.90
8945;DHT22;4507;40.232;29.132;2023-04-24T05:01:14;12.60;99.90
8945;DHT22;4507;40.232;29.132;2023-04-24T05:03:46;12.60;99.90
8945;DHT22;4507;40.232;29.132;2023-04-24T05:06:18;12.60;99.90
8945;DHT22;4507;40.232;29.132;2023-04-24T05:08:51;12.60;99.90
8945;DHT22;4507;40.232;29.132;2023-04-24T05:11:32;12.60;99.90
8945;DHT22;4507;40.232;29.132;2023-04-24T05:14:02;12.70;99.90
8945;DHT22;4507;40.232;29.132;2023-04-24T05:16:35;12.70;99.90
8945;DHT22;4507;40.232;29.132;2023-04-24T05:19:05;12.80;99.90
8945;DHT22;4507;40.232;29.132;2023-04-24T05:21:40;12.80;99.90
8945;DHT22;4507;40.232;29.132;2023-04-24T05:24:27;12.90;99.90
8945;DHT22;4507;40.232;29.132;2023-04-24T05:27:08;13.00;99.90
8945;DHT22;4507;40.232;29.132;2023-04-24T05:29:40;13.00;99.90
8945;DHT22;4507;40.232;29.132;2023-04-24T05:32:10;13.10;99.90
8945;DHT22;4507;40.232;29.132;2023-04-24T05:34:39;13.20;99.90
8945;DHT22;4507;40.232;29.132;2023-04-24T05:37:10;13.30;99.90
8945;DHT22;4507;40.232;29.132;2023-04-24T05:39:40;13.30;99.90
8945;DHT22;4507;40.232;29.132;2023-04-24T05:42:10;13.40;99.90
8945;DHT22;4507;40.232;29.132;2023-04-24T05:44:39;13.40;99.90
8945;DHT22;4507;40.232;29.132;2023-04-24T05:47:09;13.50;99.90
8945;DHT22;4507;40.232;29.132;2023-04-24T05:49:38;13.50;99.90
8945;DHT22;4507;40.232;29.132;2023-04-24T05:52:09;13.60;99.90
8945;DHT22;4507;40.232;29.132;2023-04-24T05:54:40;13.70;99.90
8945;DHT22;4507;40.232;29.132;2023-04-24T05:57:12;13.70;99.90
8945;DHT22;4507;40.232;29.132;2023-04-24T05:59:53;13.70;99.90
8945;DHT22;4507;40.232;29.132;2023-04-24T06:02:22;13.80;99.90
8945;DHT22;4507;40.232;29.132;2023-04-24T06:04:54;13.90;99.90
8945;DHT22;4507;40.232;29.132;2023-04-24T06:07:26;13.90;99.90
8945;DHT22;4507;40.232;29.132;2023-04-24T06:09:55;14.00;99.90
8945;DHT22;4507;40.232;29.132;2023-04-24T06:12:25;14.00;99.90
8945;DHT22;4507;40.232;29.132;2023-04-24T06:14:59;14.00;99.90
8945;DHT22;4507;40.232;29.132;2023-04-24T06:17:47;14.10;99.70
8945;DHT22;4507;40.232;29.132;2023-04-24T06:20:18;14.10;99.60
8945;DHT22;4507;40.232;29.132;2023-04-24T06:22:48;14.20;99.30
8945;DHT22;4507;40.232;29.132;2023-04-24T06:25:18;14.30;99.30
8945;DHT22;4507;40.232;29.132;2023-04-24T06:27:47;14.40;98.50
8945;DHT22;4507;40.232;29.132;2023-04-24T06:30:16;14.50;98.20
8945;DHT22;4507;40.232;29.132;2023-04-24T06:32:51;14.50;97.80
8945;DHT22;4507;40.232;29.132;2023-04-24T06:35:50;14.60;97.40
8945;DHT22;4507;40.232;29.132;2023-04-24T06:38:26;14.60;97.40
8945;DHT22;4507;40.232;29.132;2023-04-24T06:40:57;14.60;97.30
8945;DHT22;4507;40.232;29.132;2023-04-24T06:43:26;14.60;97.20
8945;DHT22;4507;40.232;29.132;2023-04-24T06:45:55;14.70;97.10
8945;DHT22;4507;40.232;29.132;2023-04-24T06:48:43;14.70;96.90
8945;DHT22;4507;40.232;29.132;2023-04-24T06:51:12;14.70;96.70
8945;DHT22;4507;40.232;29.132;2023-04-24T06:54:01;14.70;96.50
8945;DHT22;4507;40.232;29.132;2023-04-24T06:56:31;14.80;96.40
8945;DHT22;4507;40.232;29.132;2023-04-24T06:59:01;14.80;96.10
8945;DHT22;4507;40.232;29.132;2023-04-24T07:01:30;14.80;96.10
8945;DHT22;4507;40.232;29.132;2023-04-24T07:04:03;14.90;95.80
8945;DHT22;4507;40.232;29.132;2023-04-24T07:06:33;14.90;95.60
8945;DHT22;4507;40.232;29.132;2023-04-24T07:09:04;14.90;95.40
8945;DHT22;4507;40.232;29.132;2023-04-24T07:11:34;15.00;95.40
8945;DHT22;4507;40.232;29.132;2023-04-24T07:14:04;15.10;95.50
8945;DHT22;4507;40.232;29.132;2023-04-24T07:16:33;15.20;95.30
8945;DHT22;4507;40.232;29.132;2023-04-24T07:19:02;15.40;94.50
8945;DHT22;4507;40.232;29.132;2023-04-24T07:21:31;15.60;94.10
8945;DHT22;4507;40.232;29.132;2023-04-24T07:24:00;15.70;93.60
8945;DHT22;4507;40.232;29.132;2023-04-24T07:26:31;15.80;93.50
8945;DHT22;4507;40.232;29.132;2023-04-24T07:29:00;15.90;92.90
8945;DHT22;4507;40.232;29.132;2023-04-24T07:31:29;16.00;92.00
8945;DHT22;4507;40.232;29.132;2023-04-24T07:33:59;16.10;91.10
8945;DHT22;4507;40.232;29.132;2023-04-24T07:36:28;16.20;89.80
8945;DHT22;4507;40.232;29.132;2023-04-24T07:38:57;16.20;89.50
8945;DHT22;4507;40.232;29.132;2023-04-24T07:41:26;16.20;89.70
8945;DHT22;4507;40.232;29.132;2023-04-24T07:43:58;16.30;90.40
8945;DHT22;4507;40.232;29.132;2023-04-24T07:46:27;16.30;90.90
8945;DHT22;4507;40.232;29.132;2023-04-24T07:48:57;16.50;90.40
8945;DHT22;4507;40.232;29.132;2023-04-24T07:51:40;16.60;88.60
8945;DHT22;4507;40.232;29.132;2023-04-24T07:54:09;16.60;86.30
8945;DHT22;4507;40.232;29.132;2023-04-24T07:56:38;16.70;86.90
8945;DHT22;4507;40.232;29.132;2023-04-24T07:59:10;16.80;86.50
8945;DHT22;4507;40.232;29.132;2023-04-24T08:01:39;16.80;84.60
8945;DHT22;4507;40.232;29.132;2023-04-24T08:04:08;16.80;83.50
8945;DHT22;4507;40.232;29.132;2023-04-24T08:06:38;16.90;83.30
8945;DHT22;4507;40.232;29.132;2023-04-24T08:09:07;16.90;83.10
8945;DHT22;4507;40.232;29.132;2023-04-24T08:11:36;16.90;83.20
8945;DHT22;4507;40.232;29.132;2023-04-24T08:14:05;16.90;82.90
8945;DHT22;4507;40.232;29.132;2023-04-24T08:16:36;17.00;83.00
8945;DHT22;4507;40.232;29.132;2023-04-24T08:19:05;17.20;83.10
8945;DHT22;4507;40.232;29.132;2023-04-24T08:21:35;17.30;82.60
8945;DHT22;4507;40.232;29.132;2023-04-24T08:24:05;17.40;81.60
8945;DHT22;4507;40.232;29.132;2023-04-24T08:26:36;17.40;81.10
8945;DHT22;4507;40.232;29.132;2023-04-24T08:29:05;17.50;81.20
8945;DHT22;4507;40.232;29.132;2023-04-24T08:31:35;17.60;80.10
8945;DHT22;4507;40.232;29.132;2023-04-24T08:34:05;17.70;79.20
8945;DHT22;4507;40.232;29.132;2023-04-24T08:36:34;17.70;79.00
8945;DHT22;4507;40.232;29.132;2023-04-24T08:39:13;17.70;79.00
8945;DHT22;4507;40.232;29.132;2023-04-24T08:41:43;17.80;78.70
8945;DHT22;4507;40.232;29.132;2023-04-24T08:44:13;17.80;78.40
8945;DHT22;4507;40.232;29.132;2023-04-24T08:46:45;17.90;78.00
8945;DHT22;4507;40.232;29.132;2023-04-24T08:49:17;18.00;77.80
8945;DHT22;4507;40.232;29.132;2023-04-24T08:51:46;18.10;77.90
8945;DHT22;4507;40.232;29.132;2023-04-24T08:54:15;18.10;77.60
8945;DHT22;4507;40.232;29.132;2023-04-24T08:57:04;18.30;77.20
8945;DHT22;4507;40.232;29.132;2023-04-24T08:59:34;18.50;76.20
8945;DHT22;4507;40.232;29.132;2023-04-24T09:02:06;18.60;75.10
8945;DHT22;4507;40.232;29.132;2023-04-24T09:04:36;18.70;74.60
8945;DHT22;4507;40.232;29.132;2023-04-24T09:07:07;18.70;74.00
8945;DHT22;4507;40.232;29.132;2023-04-24T09:09:38;18.90;74.60
8945;DHT22;4507;40.232;29.132;2023-04-24T09:12:26;19.00;73.10
8945;DHT22;4507;40.232;29.132;2023-04-24T09:14:56;19.00;72.70
8945;DHT22;4507;40.232;29.132;2023-04-24T09:17:27;19.10;72.00
8945;DHT22;4507;40.232;29.132;2023-04-24T09:19:57;19.20;72.10
8945;DHT22;4507;40.232;29.132;2023-04-24T09:22:29;19.30;72.10
8945;DHT22;4507;40.232;29.132;2023-04-24T09:25:03;19.40;72.40
8945;DHT22;4507;40.232;29.132;2023-04-24T09:27:34;19.60;72.10
8945;DHT22;4507;40.232;29.132;2023-04-24T09:30:04;19.70;72.10
8945;DHT22;4507;40.232;29.132;2023-04-24T09:32:36;19.80;71.70
8945;DHT22;4507;40.232;29.132;2023-04-24T09:35:24;20.00;70.80
8945;DHT22;4507;40.232;29.132;2023-04-24T09:37:54;20.20;70.30
8945;DHT22;4507;40.232;29.132;2023-04-24T09:40:26;20.30;68.70
8945;DHT22;4507;40.232;29.132;2023-04-24T09:42:56;20.40;68.50
8945;DHT22;4507;40.232;29.132;2023-04-24T09:45:35;20.50;68.00
8945;DHT22;4507;40.232;29.132;2023-04-24T09:48:07;20.70;67.50
8945;DHT22;4507;40.232;29.132;2023-04-24T09:50:46;20.80;67.10
8945;DHT22;4507;40.232;29.132;2023-04-24T09:53:17;20.90;67.00
8945;DHT22;4507;40.232;29.132;2023-04-24T09:55:52;21.00;66.40
8945;DHT22;4507;40.232;29.132;2023-04-24T09:58:25;21.10;66.20
8945;DHT22;4507;40.232;29.132;2023-04-24T10:00:56;21.10;65.20
8945;DHT22;4507;40.232;29.132;2023-04-24T10:03:30;21.20;65.40
8945;DHT22;4507;40.232;29.132;2023-04-24T10:05:59;21.30;64.40
8945;DHT22;4507;40.232;29.132;2023-04-24T10:08:34;21.30;63.80
8945;DHT22;4507;40.232;29.132;2023-04-24T10:11:03;21.40;62.80
8945;DHT22;4507;40.232;29.132;2023-04-24T10:13:37;21.50;62.60
8945;DHT22;4507;40.232;29.132;2023-04-24T10:16:11;21.60;62.00
8945;DHT22;4507;40.232;29.132;2023-04-24T10:18:42;21.70;61.20
8945;DHT22;4507;40.232;29.132;2023-04-24T10:21:12;21.80;60.40
8945;DHT22;4507;40.232;29.132;2023-04-24T10:23:42;22.00;59.00
8945;DHT22;4507;40.232;29.132;2023-04-24T10:26:13;22.10;57.50
8945;DHT22;4507;40.232;29.132;2023-04-24T10:28:45;22.10;56.50
8945;DHT22;4507;40.232;29.132;2023-04-24T10:31:33;22.10;55.50
8945;DHT22;4507;40.232;29.132;2023-04-24T10:34:05;22.20;53.10
8945;DHT22;4507;40.232;29.132;2023-04-24T10:36:36;22.30;52.50
8945;DHT22;4507;40.232;29.132;2023-04-24T10:39:09;22.30;50.70
8945;DHT22;4507;40.232;29.132;2023-04-24T10:41:40;22.30;51.10
8945;DHT22;4507;40.232;29.132;2023-04-24T10:44:10;22.40;50.80
8945;DHT22;4507;40.232;29.132;2023-04-24T10:46:43;22.40;50.00
8945;DHT22;4507;40.232;29.132;2023-04-24T10:49:14;22.40;48.70
8945;DHT22;4507;40.232;29.132;2023-04-24T10:54:41;22.50;46.50
8945;DHT22;4507;40.232;29.132;2023-04-24T10:57:27;22.50;45.30
8945;DHT22;4507;40.232;29.132;2023-04-24T11:00:24;22.60;43.60
8945;DHT22;4507;40.232;29.132;2023-04-24T11:02:56;22.90;44.20
8945;DHT22;4507;40.232;29.132;2023-04-24T11:06:08;23.10;41.60
8945;DHT22;4507;40.232;29.132;2023-04-24T11:08:39;23.40;42.50
8945;DHT22;4507;40.232;29.132;2023-04-24T11:11:10;23.60;41.50
8945;DHT22;4507;40.232;29.132;2023-04-24T11:14:02;23.90;40.70
8945;DHT22;4507;40.232;29.132;2023-04-24T11:16:44;24.10;41.10
8945;DHT22;4507;40.232;29.132;2023-04-24T11:19:22;24.40;41.40
8945;DHT22;4507;40.232;29.132;2023-04-24T11:21:58;24.70;42.00
8945;DHT22;4507;40.232;29.132;2023-04-24T11:24:31;25.00;41.20
8945;DHT22;4507;40.232;29.132;2023-04-24T11:27:11;25.20;41.00
8945;DHT22;4507;40.232;29.132;2023-04-24T11:29:45;25.40;39.40
8945;DHT22;4507;40.232;29.132;2023-04-24T11:32:26;25.60;38.40
8945;DHT22;4507;40.232;29.132;2023-04-24T11:34:56;25.80;37.50
8945;DHT22;4507;40.232;29.132;2023-04-24T11:37:29;26.00;37.30
8945;DHT22;4507;40.232;29.132;2023-04-24T11:40:02;26.20;36.90
8945;DHT22;4507;40.232;29.132;2023-04-24T11:42:36;26.40;36.00
8945;DHT22;4507;40.232;29.132;2023-04-24T11:45:09;26.60;36.10
8945;DHT22;4507;40.232;29.132;2023-04-24T11:47:40;26.70;35.60
8945;DHT22;4507;40.232;29.132;2023-04-24T11:50:12;26.80;35.70
8945;DHT22;4507;40.232;29.132;2023-04-24T11:52:44;26.90;36.00
8945;DHT22;4507;40.232;29.132;2023-04-24T11:55:29;27.00;35.30
8945;DHT22;4507;40.232;29.132;2023-04-24T11:57:59;27.10;35.20
8945;DHT22;4507;40.232;29.132;2023-04-24T12:00:30;27.10;34.60
8945;DHT22;4507;40.232;29.132;2023-04-24T12:03:06;27.00;34.70
8945;DHT22;4507;40.232;29.132;2023-04-24T12:05:36;27.00;34.00
8945;DHT22;4507;40.232;29.132;2023-04-24T12:08:15;26.80;33.90
8945;DHT22;4507;40.232;29.132;2023-04-24T12:11:07;26.70;34.20
8945;DHT22;4507;40.232;29.132;2023-04-24T12:13:42;26.50;34.10
8945;DHT22;4507;40.232;29.132;2023-04-24T12:16:14;26.40;34.10
8945;DHT22;4507;40.232;29.132;2023-04-24T12:18:51;26.30;34.00
8945;DHT22;4507;40.232;29.132;2023-04-24T12:21:22;26.10;33.20
8945;DHT22;4507;40.232;29.132;2023-04-24T12:23:56;26.00;33.40
8945;DHT22;4507;40.232;29.132;2023-04-24T12:26:27;25.90;33.10
8945;DHT22;4507;40.232;29.132;2023-04-24T12:29:01;25.80;33.30
8945;DHT22;4507;40.232;29.132;2023-04-24T12:31:32;25.80;32.70
8945;DHT22;4507;40.232;29.132;2023-04-24T12:34:01;25.80;32.50
8945;DHT22;4507;40.232;29.132;2023-04-24T12:36:30;25.80;32.90
8945;DHT22;4507;40.232;29.132;2023-04-24T12:39:01;25.80;33.80
8945;DHT22;4507;40.232;29.132;2023-04-24T12:41:31;25.80;33.50
8945;DHT22;4507;40.232;29.132;2023-04-24T12:44:00;25.70;34.00
8945;DHT22;4507;40.232;29.132;2023-04-24T12:46:29;25.60;34.00
8945;DHT22;4507;40.232;29.132;2023-04-24T12:48:58;25.50;34.00
8945;DHT22;4507;40.232;29.132;2023-04-24T12:51:27;25.40;34.60
8945;DHT22;4507;40.232;29.132;2023-04-24T12:53:56;25.40;36.10
8945;DHT22;4507;40.232;29.132;2023-04-24T12:56:27;25.30;35.50
8945;DHT22;4507;40.232;29.132;2023-04-24T12:58:57;25.30;35.70
8945;DHT22;4507;40.232;29.132;2023-04-24T13:01:26;25.20;35.70
8945;DHT22;4507;40.232;29.132;2023-04-24T13:03:56;25.20;36.00
8945;DHT22;4507;40.232;29.132;2023-04-24T13:06:25;25.20;36.20
8945;DHT22;4507;40.232;29.132;2023-04-24T13:08:55;25.20;35.30
8945;DHT22;4507;40.232;29.132;2023-04-24T13:11:32;25.20;35.20
8945;DHT22;4507;40.232;29.132;2023-04-24T13:14:03;25.20;35.20
8945;DHT22;4507;40.232;29.132;2023-04-24T13:16:33;25.10;34.90
8945;DHT22;4507;40.232;29.132;2023-04-24T13:19:02;25.00;34.90
8945;DHT22;4507;40.232;29.132;2023-04-24T13:21:31;24.90;35.40
8945;DHT22;4507;40.232;29.132;2023-04-24T13:24:01;24.80;35.10
8945;DHT22;4507;40.232;29.132;2023-04-24T13:26:42;24.80;35.70
8945;DHT22;4507;40.232;29.132;2023-04-24T13:29:11;24.70;35.30
8945;DHT22;4507;40.232;29.132;2023-04-24T13:31:41;24.70;34.80
8945;DHT22;4507;40.232;29.132;2023-04-24T13:34:10;24.60;34.80
8945;DHT22;4507;40.232;29.132;2023-04-24T13:36:39;24.50;34.50
8945;DHT22;4507;40.232;29.132;2023-04-24T13:39:09;24.40;34.60
8945;DHT22;4507;40.232;29.132;2023-04-24T13:41:44;24.30;34.60
8945;DHT22;4507;40.232;29.132;2023-04-24T13:44:16;24.10;34.60
8945;DHT22;4507;40.232;29.132;2023-04-24T13:46:47;24.00;34.50
8945;DHT22;4507;40.232;29.132;2023-04-24T13:49:16;24.00;34.70
8945;DHT22;4507;40.232;29.132;2023-04-24T13:51:46;23.80;34.30
8945;DHT22;4507;40.232;29.132;2023-04-24T13:54:15;23.70;34.00
8945;DHT22;4507;40.232;29.132;2023-04-24T13:56:45;23.70;34.30
8945;DHT22;4507;40.232;29.132;2023-04-24T13:59:15;23.70;34.00
8945;DHT22;4507;40.232;29.132;2023-04-24T14:01:45;23.60;34.20
8945;DHT22;4507;40.232;29.132;2023-04-24T14:04:16;23.60;34.60
8945;DHT22;4507;40.232;29.132;2023-04-24T14:06:46;23.60;35.00
8945;DHT22;4507;40.232;29.132;2023-04-24T14:09:15;23.50;35.30
8945;DHT22;4507;40.232;29.132;2023-04-24T14:11:46;23.50;35.60
8945;DHT22;4507;40.232;29.132;2023-04-24T14:14:15;23.50;36.20
8945;DHT22;4507;40.232;29.132;2023-04-24T14:16:44;23.40;36.50
8945;DHT22;4507;40.232;29.132;2023-04-24T14:19:13;23.50;37.00
8945;DHT22;4507;40.232;29.132;2023-04-24T14:21:43;23.50;37.10
8945;DHT22;4507;40.232;29.132;2023-04-24T14:24:12;23.50;36.60
8945;DHT22;4507;40.232;29.132;2023-04-24T14:26:42;23.50;36.10
8945;DHT22;4507;40.232;29.132;2023-04-24T14:29:13;23.50;36.40
8945;DHT22;4507;40.232;29.132;2023-04-24T14:31:42;23.50;36.60
8945;DHT22;4507;40.232;29.132;2023-04-24T14:34:13;23.50;36.70
8945;DHT22;4507;40.232;29.132;2023-04-24T14:36:44;23.50;36.60
8945;DHT22;4507;40.232;29.132;2023-04-24T14:39:14;23.50;36.40
8945;DHT22;4507;40.232;29.132;2023-04-24T14:41:44;23.40;36.20
8945;DHT22;4507;40.232;29.132;2023-04-24T14:44:15;23.30;36.30
8945;DHT22;4507;40.232;29.132;2023-04-24T14:46:44;23.20;36.30
8945;DHT22;4507;40.232;29.132;2023-04-24T14:49:14;23.10;36.20
8945;DHT22;4507;40.232;29.132;2023-04-24T14:51:43;23.00;36.50
8945;DHT22;4507;40.232;29.132;2023-04-24T14:54:12;22.90;36.40
8945;DHT22;4507;40.232;29.132;2023-04-24T14:56:42;22.80;36.50
8945;DHT22;4507;40.232;29.132;2023-04-24T14:59:12;22.80;36.60
8945;DHT22;4507;40.232;29.132;2023-04-24T15:01:43;22.70;36.90
8945;DHT22;4507;40.232;29.132;2023-04-24T15:04:12;22.70;36.90
8945;DHT22;4507;40.232;29.132;2023-04-24T15:06:41;22.60;36.80
8945;DHT22;4507;40.232;29.132;2023-04-24T15:09:10;22.60;37.10
8945;DHT22;4507;40.232;29.132;2023-04-24T15:11:40;22.60;37.10
8945;DHT22;4507;40.232;29.132;2023-04-24T15:14:10;22.40;37.20
8945;DHT22;4507;40.232;29.132;2023-04-24T15:16:39;22.50;37.10
8945;DHT22;4507;40.232;29.132;2023-04-24T15:19:10;22.40;37.10
8945;DHT22;4507;40.232;29.132;2023-04-24T15:21:39;22.40;37.30
8945;DHT22;4507;40.232;29.132;2023-04-24T15:24:09;22.30;37.80
8945;DHT22;4507;40.232;29.132;2023-04-24T15:26:39;22.30;38.50
8945;DHT22;4507;40.232;29.132;2023-04-24T15:29:08;22.20;39.20
8945;DHT22;4507;40.232;29.132;2023-04-24T15:31:37;22.20;39.90
8945;DHT22;4507;40.232;29.132;2023-04-24T15:34:09;22.10;40.30
8945;DHT22;4507;40.232;29.132;2023-04-24T15:36:38;22.10;40.50
8945;DHT22;4507;40.232;29.132;2023-04-24T15:39:08;22.00;40.60
8945;DHT22;4507;40.232;29.132;2023-04-24T15:41:38;22.00;41.10
8945;DHT22;4507;40.232;29.132;2023-04-24T15:44:07;21.90;41.40
8945;DHT22;4507;40.232;29.132;2023-04-24T15:46:36;21.90;42.00
8945;DHT22;4507;40.232;29.132;2023-04-24T15:49:06;21.80;42.40
8945;DHT22;4507;40.232;29.132;2023-04-24T15:51:36;21.70;42.50
8945;DHT22;4507;40.232;29.132;2023-04-24T15:54:06;21.70;42.80
8945;DHT22;4507;40.232;29.132;2023-04-24T15:56:36;21.60;43.00
8945;DHT22;4507;40.232;29.132;2023-04-24T15:59:05;21.50;43.40
8945;DHT22;4507;40.232;29.132;2023-04-24T16:01:35;21.40;43.50
8945;DHT22;4507;40.232;29.132;2023-04-24T16:04:04;21.40;43.70
8945;DHT22;4507;40.232;29.132;2023-04-24T16:06:35;21.30;43.90
8945;DHT22;4507;40.232;29.132;2023-04-24T16:09:05;21.20;44.10
8945;DHT22;4507;40.232;29.132;2023-04-24T16:11:35;21.20;44.50
8945;DHT22;4507;40.232;29.132;2023-04-24T16:14:06;21.10;44.70
8945;DHT22;4507;40.232;29.132;2023-04-24T16:16:37;21.00;45.30